Kolkata, India

11:04 PM IST on July 28, 2016 (GMT +0530)
Action Area IIB | | Change Station

Elev 0 ft 22.61 °N, 88.48 °E | Updated 46 seconds ago

Haze
Haze
84.9 °F
Feels Like 83 °F
N
7.6
Wind Variable Wind from ESE
Gusts 9.8 mph

Today
High -- | Low -- °F
--% Chance of Precip.
Yesterday
High -- | Low -- °F
Precip. -- in
Pressure 29.65 in
Visibility 1.7 miles
Clouds Scattered Clouds 1800 ft
Mostly Cloudy 10000 ft
Heat Index 83 °F
Dew Point 54 °F
Humidity 35%
Rainfall in
Snow Depth Not available.
5:05 AM 6:19 PM
Waning Crescent, 30% visible
METAR VECC 281730Z 15006KT 2800 HZ SCT018 BKN100 29/27 Q1004 NOSIG
Pressure 29.65 in
Visibility 1.7 miles
Clouds Scattered Clouds 1800 ft
Mostly Cloudy 10000 ft
Heat Index 83 °F
Dew Point 54 °F
Humidity 35%
Rainfall in
Snow Depth Not available.
5:05 AM 6:19 PM
Waning Crescent, 30% visible
METAR VECC 281730Z 15006KT 2800 HZ SCT018 BKN100 29/27 Q1004 NOSIG

10-Day Weather Forecast

No radar image for this location.
×

Almanac

Astronomy

Jul. 28, 2016 Rise Set
Actual Time
Civil Twilight
Nautical Twilight
Astronomical Twilight
Moon
Length of Visible Light
Length of Day
Tomorrow will be .
, % of the Moon is Illuminated

Today's Extremes

Country Highs Country Lows

Community

WunderPhotos

Upload Photos

1,928,163 photos uploaded!

WunderBlog® & News

Nearby

Air Quality

  Air Quality AQ Index Pollutant
Not available.

Snow Depth

Station Depth Elevation

Earthquake Activity

City Distance Mag. Time & Date
Minimum magnitude displayed is 2.5.

Coastal Water Temperatures

Place Temperature

Stations

Nearby Weather Stations

Station Location Temp. Windchill Dew Point Humidity Wind Precip. Elev Updated Type